< < Back
Terminal Aerodrome Forecast


Current Version              Previous Versions:   1  2  3  4  5  6  7  8  9  

Terminal Aerodrome Forecast

776
FTUS44 KMRX 280523
TAFTYS
TAF
KTYS 280523Z 2806/2906 03003KT P6SM BKN250
     FM281400 04007KT P6SM BKN250
     FM290300 04003KT P6SM BKN070=



Latest METAR

881
SAUS80 KWBC 281200 RRA
MTRTYS
METAR KTYS 281153Z 04008KT 10SM FEW100 08/04 A2999 RMK AO2 SLP153
T00780039 10094 20056 53012


USA.gov is the U.S. government's official web portal to all federal, state and local government web resources and services.